createdAt,value
2019-02-17T00:01:21.892Z,12.83
2019-02-17T00:03:49.942Z,12.03
2019-02-17T00:06:17.938Z,12.17
2019-02-17T00:08:45.900Z,12.17
2019-02-17T00:11:13.893Z,11.20
2019-02-17T00:13:41.952Z,12.43
2019-02-17T00:16:10.863Z,11.57
2019-02-17T00:18:38.818Z,12.87
2019-02-17T00:21:06.788Z,12.90
2019-02-17T00:23:34.750Z,12.23
2019-02-17T00:26:02.720Z,14.30
2019-02-17T00:28:30.702Z,11.50
2019-02-17T00:30:58.764Z,12.63
2019-02-17T00:33:26.751Z,12.03
2019-02-17T00:35:54.702Z,11.50
2019-02-17T00:38:22.590Z,10.73
2019-02-17T00:40:50.558Z,10.27
2019-02-17T00:43:18.602Z,10.20
2019-02-17T00:45:46.593Z,10.63
2019-02-17T00:48:14.653Z,9.63
2019-02-17T00:50:42.622Z,10.90
2019-02-17T00:53:10.617Z,9.93
2019-02-17T00:55:38.679Z,9.90
2019-02-17T00:58:06.622Z,9.63
2019-02-17T01:00:34.613Z,9.40
2019-02-17T01:03:02.602Z,9.73
2019-02-17T01:05:30.601Z,9.10
2019-02-17T01:07:58.495Z,9.23
2019-02-17T01:10:26.496Z,9.70
2019-02-17T01:12:54.458Z,9.10
2019-02-17T01:15:22.402Z,8.90
2019-02-17T01:17:50.416Z,9.70
2019-02-17T01:20:18.341Z,9.80
2019-02-17T01:22:46.330Z,10.10
2019-02-17T01:25:14.279Z,10.37
2019-02-17T01:27:42.261Z,9.13
2019-02-17T01:30:12.001Z,9.90
2019-02-17T01:32:40.064Z,10.20
2019-02-17T01:35:08.157Z,9.77
2019-02-17T01:37:36.183Z,9.40
2019-02-17T01:40:05.021Z,9.80
2019-02-17T01:42:33.041Z,9.70
2019-02-17T01:45:01.007Z,9.53
2019-02-17T01:47:28.992Z,10.37
2019-02-17T01:49:56.953Z,10.00
2019-02-17T01:52:24.927Z,9.83
2019-02-17T01:54:52.928Z,10.80
2019-02-17T01:57:20.981Z,10.60
2019-02-17T01:59:49.035Z,10.43
2019-02-17T02:02:17.007Z,9.73
2019-02-17T02:04:45.024Z,10.80
2019-02-17T02:07:13.045Z,10.17
2019-02-17T02:09:41.024Z,9.50
2019-02-17T02:12:08.963Z,9.30
2019-02-17T02:14:36.970Z,10.23
2019-02-17T02:17:05.006Z,9.80
2019-02-17T02:19:32.997Z,9.43
2019-02-17T02:22:01.175Z,10.10
2019-02-17T02:24:29.245Z,11.20
2019-02-17T02:26:57.282Z,9.73
2019-02-17T02:29:25.477Z,9.00
2019-02-17T02:31:53.434Z,10.63
2019-02-17T02:34:21.409Z,9.17
2019-02-17T02:36:49.425Z,9.60
2019-02-17T02:39:17.446Z,8.20
2019-02-17T02:41:46.447Z,9.83
2019-02-17T02:44:14.413Z,9.60
2019-02-17T02:46:42.407Z,10.70
2019-02-17T02:49:10.359Z,10.90
2019-02-17T02:51:38.333Z,9.23
2019-02-17T02:54:06.425Z,11.43
2019-02-17T02:56:34.351Z,9.37
2019-02-17T02:59:02.335Z,9.07
2019-02-17T03:01:30.291Z,10.73
2019-02-17T03:03:58.302Z,11.73
2019-02-17T03:06:32.676Z,10.70
2019-02-17T03:09:00.662Z,9.93
2019-02-17T03:11:28.659Z,10.40
2019-02-17T03:13:56.721Z,10.83
2019-02-17T03:16:24.796Z,10.23
2019-02-17T03:18:52.832Z,9.77
2019-02-17T03:21:20.814Z,9.47
2019-02-17T03:23:48.813Z,9.10
2019-02-17T03:26:16.786Z,9.20
2019-02-17T03:28:44.747Z,9.20
2019-02-17T03:31:12.779Z,9.53
2019-02-17T03:33:40.769Z,11.03
2019-02-17T03:36:08.755Z,10.57
2019-02-17T03:38:36.809Z,9.93
2019-02-17T03:41:04.776Z,9.93
2019-02-17T03:43:33.040Z,9.93
2019-02-17T03:46:01.012Z,10.20
2019-02-17T03:48:28.974Z,10.10
2019-02-17T03:50:57.371Z,10.83
2019-02-17T03:53:25.329Z,11.83
2019-02-17T03:55:53.294Z,10.80
2019-02-17T03:58:21.270Z,11.73
2019-02-17T04:00:49.219Z,13.17
2019-02-17T04:03:17.181Z,11.10
2019-02-17T04:05:45.105Z,12.20
2019-02-17T04:08:13.379Z,11.40
2019-02-17T04:10:41.524Z,10.80
2019-02-17T04:13:09.480Z,10.40
2019-02-17T04:15:37.582Z,10.30
2019-02-17T04:18:06.046Z,10.40
2019-02-17T04:20:34.029Z,10.70
2019-02-17T04:23:02.092Z,9.77
2019-02-17T04:25:30.068Z,9.37
2019-02-17T04:27:58.013Z,10.07
2019-02-17T04:30:29.581Z,9.63
2019-02-17T04:32:55.717Z,10.53
2019-02-17T04:35:23.673Z,10.70
2019-02-17T04:37:51.651Z,10.70
2019-02-17T04:40:19.580Z,9.53
2019-02-17T04:42:47.501Z,10.00
2019-02-17T04:45:15.430Z,10.17
2019-02-17T04:47:43.458Z,10.00
2019-02-17T04:50:11.495Z,11.10
2019-02-17T04:52:39.483Z,9.53
2019-02-17T04:55:07.729Z,9.37
2019-02-17T04:57:35.728Z,9.70
2019-02-17T05:00:03.973Z,9.30
2019-02-17T05:02:31.953Z,8.90
2019-02-17T05:05:00.002Z,9.60
2019-02-17T05:07:27.934Z,9.43
2019-02-17T05:09:55.969Z,11.43
2019-02-17T05:12:24.039Z,10.40
2019-02-17T05:14:52.024Z,9.83
2019-02-17T05:17:20.077Z,9.10
2019-02-17T05:19:48.046Z,9.10
2019-02-17T05:22:16.042Z,10.40
2019-02-17T05:24:44.088Z,10.27
2019-02-17T05:27:12.039Z,10.07
2019-02-17T05:29:40.048Z,9.50
2019-02-17T05:32:08.077Z,9.50
2019-02-17T05:34:36.102Z,10.30
2019-02-17T05:37:04.133Z,9.70
2019-02-17T05:39:32.119Z,10.80
2019-02-17T05:42:00.076Z,10.17
2019-02-17T05:44:28.364Z,9.83
2019-02-17T05:46:56.317Z,10.00
2019-02-17T05:49:24.284Z,9.70
2019-02-17T05:51:52.273Z,10.03
2019-02-17T05:54:20.223Z,10.37
2019-02-17T05:56:48.491Z,9.57
2019-02-17T05:59:16.472Z,9.10
2019-02-17T06:01:44.426Z,11.40
2019-02-17T06:04:12.397Z,11.50
2019-02-17T06:06:40.438Z,11.20
2019-02-17T06:09:08.750Z,10.63
2019-02-17T06:11:36.713Z,11.13
2019-02-17T06:14:04.681Z,12.17
2019-02-17T06:16:32.720Z,12.27
2019-02-17T06:19:00.645Z,12.30
2019-02-17T06:21:28.714Z,11.10
2019-02-17T06:23:56.777Z,11.30
2019-02-17T06:26:24.776Z,10.50
2019-02-17T06:28:52.700Z,10.63
2019-02-17T06:31:20.686Z,10.33
2019-02-17T06:33:48.654Z,9.53
2019-02-17T06:36:16.607Z,9.40
2019-02-17T06:38:44.611Z,10.00
2019-02-17T06:41:12.545Z,10.27
2019-02-17T06:43:40.537Z,10.67
2019-02-17T06:46:10.063Z,13.33
2019-02-17T06:48:38.039Z,13.70
2019-02-17T06:51:06.167Z,13.27
2019-02-17T06:53:34.245Z,15.00
2019-02-17T06:56:17.891Z,12.83
2019-02-17T06:58:45.851Z,12.47
2019-02-17T07:01:24.151Z,13.07
2019-02-17T07:03:43.591Z,13.57
2019-02-17T07:06:30.643Z,14.83
2019-02-17T07:08:59.215Z,16.57
2019-02-17T07:11:27.233Z,17.20
2019-02-17T07:13:55.294Z,17.87
2019-02-17T07:16:23.887Z,17.87
2019-02-17T07:18:51.936Z,17.37
2019-02-17T07:21:19.932Z,17.80
2019-02-17T07:23:47.963Z,22.00
2019-02-17T07:26:17.231Z,19.93
2019-02-17T07:28:45.427Z,19.90
2019-02-17T07:31:13.400Z,20.67
2019-02-17T07:33:41.895Z,27.40
2019-02-17T07:36:09.859Z,27.57
2019-02-17T07:38:37.815Z,25.40
2019-02-17T07:41:05.818Z,24.93
2019-02-17T07:43:33.755Z,24.80
2019-02-17T07:46:01.728Z,27.57
2019-02-17T07:48:29.722Z,27.30
2019-02-17T07:50:57.874Z,42.30
2019-02-17T07:53:26.149Z,42.47
2019-02-17T07:55:54.133Z,40.90
2019-02-17T07:58:22.193Z,34.30
2019-02-17T08:00:50.223Z,28.17
2019-02-17T08:03:18.181Z,25.83
2019-02-17T08:05:46.091Z,24.00
2019-02-17T08:08:14.074Z,22.83
2019-02-17T08:10:42.053Z,23.07
2019-02-17T08:13:10.025Z,22.63
2019-02-17T08:15:38.057Z,22.63
2019-02-17T08:18:06.409Z,23.50
2019-02-17T08:20:36.516Z,21.90
2019-02-17T08:23:04.219Z,22.83
2019-02-17T08:25:34.166Z,21.10
2019-02-17T08:28:02.200Z,20.70
2019-02-17T08:30:30.198Z,20.80
2019-02-17T08:32:58.432Z,21.00
2019-02-17T08:35:26.350Z,20.57
2019-02-17T08:37:54.433Z,19.33
2019-02-17T08:40:22.477Z,19.83
2019-02-17T08:42:50.459Z,19.27
2019-02-17T08:45:18.909Z,21.43
2019-02-17T08:47:46.907Z,20.90
2019-02-17T08:50:15.025Z,19.23
2019-02-17T08:52:43.104Z,19.47
2019-02-17T08:55:11.128Z,19.50
2019-02-17T08:57:39.220Z,18.20
2019-02-17T09:00:08.220Z,18.40
2019-02-17T09:02:36.156Z,18.67
2019-02-17T09:05:04.134Z,18.57
2019-02-17T09:07:32.749Z,18.77
2019-02-17T09:10:00.848Z,17.83
2019-02-17T09:12:28.866Z,17.13
2019-02-17T09:14:56.855Z,17.50
2019-02-17T09:17:25.024Z,16.97
2019-02-17T09:19:53.081Z,17.57
2019-02-17T09:22:21.077Z,17.90
2019-02-17T09:24:49.169Z,18.27
2019-02-17T09:27:17.075Z,16.67
2019-02-17T09:29:45.035Z,16.00
2019-02-17T09:32:16.276Z,15.40
2019-02-17T09:34:42.721Z,15.60
2019-02-17T09:37:10.685Z,16.00
2019-02-17T09:39:38.892Z,14.97
2019-02-17T09:42:06.860Z,16.00
2019-02-17T09:44:34.891Z,15.10
2019-02-17T09:47:03.200Z,14.83
2019-02-17T09:49:31.250Z,13.07
2019-02-17T09:51:59.214Z,14.50
2019-02-17T09:54:27.208Z,14.00
2019-02-17T09:56:56.290Z,13.03
2019-02-17T09:59:24.288Z,12.27
2019-02-17T10:01:52.492Z,12.47
2019-02-17T10:04:20.414Z,13.30
2019-02-17T10:06:48.387Z,13.70
2019-02-17T10:09:16.478Z,12.30
2019-02-17T10:11:44.549Z,13.50
2019-02-17T10:14:12.496Z,12.13
2019-02-17T10:16:40.434Z,13.10
2019-02-17T10:19:08.403Z,12.53
2019-02-17T10:21:36.414Z,12.23
2019-02-17T10:24:04.441Z,13.50
2019-02-17T10:26:32.445Z,13.40
2019-02-17T10:29:00.604Z,12.47
2019-02-17T10:31:28.593Z,13.00
2019-02-17T10:33:56.708Z,13.17
2019-02-17T10:36:24.622Z,13.60
2019-02-17T10:38:53.007Z,14.10
2019-02-17T10:41:20.945Z,12.50
2019-02-17T10:43:48.956Z,13.00
2019-02-17T10:46:17.138Z,13.10
2019-02-17T10:48:45.167Z,12.47
2019-02-17T10:51:13.176Z,12.67
2019-02-17T10:53:41.207Z,11.87
2019-02-17T10:56:09.216Z,13.40
2019-02-17T10:58:37.147Z,12.87
2019-02-17T11:01:05.123Z,12.33
2019-02-17T11:03:33.217Z,11.80
2019-02-17T11:06:01.348Z,12.53
2019-02-17T11:08:29.363Z,12.60
2019-02-17T11:10:57.339Z,12.90
2019-02-17T11:13:25.884Z,10.80
2019-02-17T11:15:53.842Z,12.63
2019-02-17T11:18:21.804Z,11.73
2019-02-17T11:20:50.201Z,11.60
2019-02-17T11:23:18.369Z,11.03
2019-02-17T11:25:46.621Z,10.60
2019-02-17T11:28:15.301Z,10.87
2019-02-17T11:30:44.251Z,13.60
2019-02-17T11:33:12.634Z,13.20
2019-02-17T11:35:40.699Z,12.10
2019-02-17T11:38:09.189Z,11.60
2019-02-17T11:40:37.158Z,11.80
2019-02-17T11:43:05.223Z,11.50
2019-02-17T11:45:34.059Z,11.07
2019-02-17T11:48:02.196Z,11.23
2019-02-17T11:50:30.706Z,12.30
2019-02-17T11:52:59.410Z,12.13
2019-02-17T11:55:28.022Z,10.70
2019-02-17T11:57:56.354Z,11.40
2019-02-17T12:00:24.483Z,11.40
2019-02-17T12:02:52.624Z,10.97
2019-02-17T12:05:21.129Z,11.37
2019-02-17T12:07:49.738Z,12.90
2019-02-17T12:10:17.849Z,11.23
2019-02-17T12:12:46.161Z,11.00
2019-02-17T12:15:14.607Z,13.17
2019-02-17T12:17:42.797Z,10.97
2019-02-17T12:20:34.700Z,11.13
2019-02-17T12:23:07.368Z,11.40
2019-02-17T12:25:40.659Z,10.53
2019-02-17T12:28:22.703Z,11.40
2019-02-17T12:30:51.490Z,10.80
2019-02-17T12:33:21.744Z,10.87
2019-02-17T12:35:49.916Z,11.47
2019-02-17T12:38:18.287Z,10.87
2019-02-17T12:40:46.809Z,10.23
2019-02-17T12:43:15.602Z,10.27
2019-02-17T12:45:43.523Z,10.80
2019-02-17T12:48:12.375Z,10.67
2019-02-17T12:50:40.526Z,10.73
2019-02-17T12:53:09.174Z,11.87
2019-02-17T12:55:37.559Z,10.30
2019-02-17T12:58:05.724Z,9.97
2019-02-17T13:00:33.839Z,9.77
2019-02-17T13:03:01.901Z,11.50
2019-02-17T13:05:30.399Z,11.00
2019-02-17T13:07:58.822Z,13.23
2019-02-17T13:10:27.304Z,9.60
2019-02-17T13:12:55.926Z,9.47
2019-02-17T13:15:24.074Z,9.33
2019-02-17T13:17:53.092Z,9.90
2019-02-17T13:20:21.341Z,9.60
2019-02-17T13:22:49.626Z,9.73
2019-02-17T13:25:17.675Z,10.30
2019-02-17T13:27:45.654Z,12.10
2019-02-17T13:30:15.314Z,10.30
2019-02-17T13:32:43.314Z,9.07
2019-02-17T13:35:11.313Z,8.50
2019-02-17T13:37:39.921Z,9.23
2019-02-17T13:40:08.614Z,8.70
2019-02-17T13:42:36.769Z,9.10
2019-02-17T13:45:04.728Z,9.20
2019-02-17T13:47:32.691Z,11.20
2019-02-17T13:50:00.669Z,14.30
2019-02-17T13:52:28.757Z,14.33
2019-02-17T13:54:56.795Z,10.47
2019-02-17T13:57:24.681Z,9.67
2019-02-17T13:59:52.665Z,8.20
2019-02-17T14:02:20.579Z,9.17
2019-02-17T14:04:48.551Z,10.00
2019-02-17T14:07:16.568Z,11.37
2019-02-17T14:09:45.136Z,10.43
2019-02-17T14:12:13.102Z,9.67
2019-02-17T14:14:41.202Z,8.83
2019-02-17T14:17:09.239Z,8.73
2019-02-17T14:19:37.297Z,8.83
2019-02-17T14:22:05.303Z,8.80
2019-02-17T14:24:33.227Z,8.27
2019-02-17T14:27:01.237Z,14.60
2019-02-17T14:29:29.298Z,10.60
2019-02-17T14:31:57.339Z,10.20
2019-02-17T14:34:25.334Z,7.87
2019-02-17T14:36:53.404Z,13.87
2019-02-17T14:39:21.481Z,11.83
2019-02-17T14:41:49.425Z,7.80
2019-02-17T14:44:17.409Z,7.90
2019-02-17T14:46:45.473Z,8.27
2019-02-17T14:49:13.523Z,7.83
2019-02-17T14:51:41.515Z,8.00
2019-02-17T14:54:09.493Z,9.63
2019-02-17T14:56:37.432Z,8.20
2019-02-17T14:59:05.412Z,7.50
2019-02-17T15:01:33.481Z,7.90
2019-02-17T15:04:08.271Z,8.83
2019-02-17T15:06:31.162Z,7.67
2019-02-17T15:08:59.065Z,8.50
2019-02-17T15:11:27.284Z,8.80
2019-02-17T15:13:55.325Z,8.70
2019-02-17T15:16:23.257Z,7.83
2019-02-17T15:18:51.248Z,9.00
2019-02-17T15:21:19.491Z,10.30
2019-02-17T15:23:47.551Z,8.20
2019-02-17T15:26:15.590Z,7.87
2019-02-17T15:28:50.573Z,8.40
2019-02-17T15:31:13.309Z,9.17
2019-02-17T15:33:41.297Z,8.77
2019-02-17T15:36:09.373Z,8.47
2019-02-17T15:38:37.431Z,9.70
2019-02-17T15:41:05.392Z,8.70
2019-02-17T15:43:33.391Z,8.27
2019-02-17T15:46:01.394Z,9.00
2019-02-17T15:48:29.420Z,8.90
2019-02-17T15:51:06.251Z,8.57
2019-02-17T15:53:27.118Z,8.53
2019-02-17T15:55:55.098Z,10.67
2019-02-17T15:58:23.163Z,9.93
2019-02-17T16:00:51.099Z,9.47
2019-02-17T16:03:19.058Z,10.57
2019-02-17T16:05:47.083Z,9.33
2019-02-17T16:08:15.052Z,10.47
2019-02-17T16:10:43.140Z,8.87
2019-02-17T16:13:11.048Z,8.83
2019-02-17T16:15:39.009Z,8.67
2019-02-17T16:18:06.990Z,9.00
2019-02-17T16:20:34.988Z,8.67
2019-02-17T16:23:03.873Z,9.30
2019-02-17T16:25:31.824Z,9.37
2019-02-17T16:27:59.757Z,9.77
2019-02-17T16:30:27.672Z,9.57
2019-02-17T16:32:55.609Z,8.70
2019-02-17T16:35:23.636Z,9.43
2019-02-17T16:37:52.020Z,10.40
2019-02-17T16:40:19.940Z,10.40
2019-02-17T16:42:48.048Z,11.90
2019-02-17T16:45:16.085Z,9.80
2019-02-17T16:47:44.567Z,9.80
2019-02-17T16:50:13.990Z,9.80
2019-02-17T16:52:42.044Z,8.77
2019-02-17T16:55:10.529Z,9.10
2019-02-17T16:57:38.579Z,9.10
2019-02-17T17:00:07.581Z,8.33
2019-02-17T17:02:35.662Z,10.57
2019-02-17T17:05:03.985Z,10.07
2019-02-17T17:07:31.998Z,9.37
2019-02-17T17:09:59.993Z,9.00
2019-02-17T17:12:28.216Z,9.40
2019-02-17T17:14:57.299Z,9.00
2019-02-17T17:17:25.400Z,10.70
2019-02-17T17:19:53.455Z,10.03
2019-02-17T17:22:21.758Z,9.23
2019-02-17T17:24:49.830Z,8.97
2019-02-17T17:27:17.815Z,9.47
2019-02-17T17:29:45.784Z,9.47
2019-02-17T17:32:13.855Z,9.20
2019-02-17T17:34:41.734Z,10.10
2019-02-17T17:37:09.955Z,9.80
2019-02-17T17:39:37.931Z,10.43
2019-02-17T17:42:05.935Z,9.50
2019-02-17T17:44:33.869Z,9.63
2019-02-17T17:47:02.232Z,9.60
2019-02-17T17:49:30.219Z,9.80
2019-02-17T17:51:58.220Z,10.53
2019-02-17T17:54:26.181Z,11.30
2019-02-17T17:56:54.332Z,11.43
2019-02-17T17:59:22.309Z,10.87
2019-02-17T18:01:50.300Z,9.70
2019-02-17T18:04:18.280Z,10.40
2019-02-17T18:06:46.333Z,9.90
2019-02-17T18:09:14.573Z,10.60
2019-02-17T18:11:42.589Z,10.73
2019-02-17T18:14:10.964Z,10.47
2019-02-17T18:16:38.908Z,11.60
2019-02-17T18:19:06.878Z,11.90
2019-02-17T18:21:34.901Z,12.97
2019-02-17T18:24:02.915Z,12.43
2019-02-17T18:26:31.193Z,11.80
2019-02-17T18:28:59.154Z,12.43
2019-02-17T18:31:27.137Z,10.60
2019-02-17T18:33:55.212Z,11.17
2019-02-17T18:36:23.191Z,10.53
2019-02-17T18:38:51.192Z,10.53
2019-02-17T18:41:19.370Z,10.30
2019-02-17T18:43:47.325Z,10.63
2019-02-17T18:46:15.248Z,11.00
2019-02-17T18:48:43.268Z,10.30
2019-02-17T18:51:11.233Z,10.30
2019-02-17T18:53:39.540Z,13.50
2019-02-17T18:56:07.548Z,16.70
2019-02-17T18:58:35.537Z,14.80
2019-02-17T19:01:03.503Z,15.77
2019-02-17T19:03:31.427Z,12.70
2019-02-17T19:05:59.847Z,14.40
2019-02-17T19:08:27.792Z,12.87
2019-02-17T19:10:55.782Z,14.50
2019-02-17T19:13:24.092Z,16.27
2019-02-17T19:15:53.685Z,15.10
2019-02-17T19:18:21.817Z,16.07
2019-02-17T19:20:50.637Z,16.37
2019-02-17T19:23:18.622Z,16.67
2019-02-17T19:25:46.594Z,12.83
2019-02-17T19:28:14.723Z,13.10
2019-02-17T19:30:42.717Z,11.90
2019-02-17T19:33:10.770Z,14.20
2019-02-17T19:35:41.975Z,13.07
2019-02-17T19:38:08.452Z,12.30
2019-02-17T19:40:36.936Z,12.80
2019-02-17T19:43:04.896Z,12.17
2019-02-17T19:45:33.115Z,12.90
2019-02-17T19:48:01.069Z,13.30
2019-02-17T19:50:29.107Z,14.10
2019-02-17T19:52:57.132Z,16.47
2019-02-17T19:55:25.061Z,16.70
2019-02-17T19:57:53.046Z,17.30
2019-02-17T20:00:21.124Z,17.43
2019-02-17T20:03:04.416Z,17.20
2019-02-17T20:05:35.361Z,14.60
2019-02-17T20:08:03.639Z,14.40
2019-02-17T20:10:31.594Z,13.43
2019-02-17T20:12:59.755Z,14.17
2019-02-17T20:15:30.182Z,14.20
2019-02-17T20:17:58.180Z,14.10
2019-02-17T20:20:26.243Z,13.40
2019-02-17T20:22:54.227Z,14.47
2019-02-17T20:25:22.195Z,15.07
2019-02-17T20:27:50.281Z,16.17
2019-02-17T20:30:18.324Z,16.00
2019-02-17T20:32:46.631Z,15.87
2019-02-17T20:35:14.683Z,13.80
2019-02-17T20:37:42.640Z,14.10
2019-02-17T20:40:10.664Z,16.50
2019-02-17T20:42:38.715Z,12.87
2019-02-17T20:45:07.207Z,13.27
2019-02-17T20:47:35.265Z,12.90
2019-02-17T20:50:03.315Z,12.70
2019-02-17T20:52:31.297Z,14.00
2019-02-17T20:54:59.313Z,14.53
2019-02-17T20:57:27.708Z,14.63
2019-02-17T20:59:55.696Z,16.13
2019-02-17T21:02:23.670Z,15.60
2019-02-17T21:04:51.690Z,14.57
2019-02-17T21:07:19.609Z,15.50
2019-02-17T21:09:47.600Z,15.70
2019-02-17T21:12:15.547Z,15.83
2019-02-17T21:14:43.530Z,12.73
2019-02-17T21:17:11.538Z,11.73
2019-02-17T21:19:39.544Z,11.40
2019-02-17T21:22:07.562Z,13.97
2019-02-17T21:24:35.614Z,13.90
2019-02-17T21:27:03.581Z,14.33
2019-02-17T21:29:31.531Z,15.13
2019-02-17T21:31:59.485Z,14.47
2019-02-17T21:34:27.507Z,13.27
2019-02-17T21:36:55.545Z,13.27
2019-02-17T21:39:23.633Z,13.40
2019-02-17T21:41:51.679Z,11.83
2019-02-17T21:44:19.638Z,11.33
2019-02-17T21:46:47.639Z,13.10
2019-02-17T21:49:15.649Z,11.30
2019-02-17T21:51:43.644Z,11.27
2019-02-17T21:54:11.887Z,12.30
2019-02-17T21:56:39.893Z,13.30
2019-02-17T21:59:07.875Z,11.80
2019-02-17T22:01:35.874Z,10.90
2019-02-17T22:04:03.810Z,11.70
2019-02-17T22:06:33.760Z,10.50
2019-02-17T22:09:01.496Z,11.93
2019-02-17T22:11:29.459Z,11.77
2019-02-17T22:13:57.488Z,10.43
2019-02-17T22:16:25.532Z,12.53
2019-02-17T22:18:53.511Z,11.47
2019-02-17T22:21:21.424Z,11.10
2019-02-17T22:23:49.440Z,11.07
2019-02-17T22:26:18.637Z,10.23
2019-02-17T22:28:46.612Z,10.33
2019-02-17T22:31:14.579Z,10.77
2019-02-17T22:33:42.644Z,10.93
2019-02-17T22:36:10.583Z,10.47
2019-02-17T22:38:38.659Z,10.77
2019-02-17T22:41:06.631Z,11.53
2019-02-17T22:43:34.625Z,11.00
2019-02-17T22:46:02.584Z,10.37
2019-02-17T22:48:30.639Z,10.07
2019-02-17T22:50:58.623Z,10.17
2019-02-17T22:53:26.569Z,9.90
2019-02-17T22:55:54.549Z,9.87
2019-02-17T22:58:22.528Z,10.07
2019-02-17T23:01:11.630Z,10.47
2019-02-17T23:03:39.635Z,10.37
2019-02-17T23:06:07.635Z,10.17
2019-02-17T23:08:35.679Z,9.97
2019-02-17T23:11:03.653Z,10.30
2019-02-17T23:13:31.644Z,10.53
2019-02-17T23:16:00.560Z,10.70
2019-02-17T23:18:28.437Z,9.63
2019-02-17T23:20:56.475Z,10.97
2019-02-17T23:23:24.433Z,9.57
2019-02-17T23:25:52.386Z,9.37
2019-02-17T23:28:20.380Z,9.30
2019-02-17T23:30:48.447Z,9.27
2019-02-17T23:33:16.403Z,9.50
2019-02-17T23:35:44.362Z,9.00
2019-02-17T23:38:12.362Z,8.90
2019-02-17T23:40:40.308Z,10.20
2019-02-17T23:43:08.299Z,8.90
2019-02-17T23:45:36.276Z,9.67
2019-02-17T23:48:04.221Z,8.17
2019-02-17T23:50:32.184Z,9.40
2019-02-17T23:53:00.148Z,9.70
2019-02-17T23:55:28.112Z,8.50
2019-02-17T23:57:56.096Z,9.00
